sensor_id;sensor_type;location;lat;lon;timestamp;temperature;humidity
35692;DHT22;26978;44.830;-0.674;2023-04-27T00:02:11;14.50;99.90
35692;DHT22;26978;44.830;-0.674;2023-04-27T00:04:37;14.50;99.90
35692;DHT22;26978;44.830;-0.674;2023-04-27T00:07:03;14.60;99.90
35692;DHT22;26978;44.830;-0.674;2023-04-27T00:09:28;14.60;99.90
35692;DHT22;26978;44.830;-0.674;2023-04-27T00:11:54;14.50;99.90
35692;DHT22;26978;44.830;-0.674;2023-04-27T00:14:20;14.50;99.90
35692;DHT22;26978;44.830;-0.674;2023-04-27T00:16:46;14.50;99.90
35692;DHT22;26978;44.830;-0.674;2023-04-27T00:19:12;14.50;99.90
35692;DHT22;26978;44.830;-0.674;2023-04-27T00:21:38;14.50;99.90
35692;DHT22;26978;44.830;-0.674;2023-04-27T00:24:04;14.60;99.90
35692;DHT22;26978;44.830;-0.674;2023-04-27T00:26:30;14.60;99.90
35692;DHT22;26978;44.830;-0.674;2023-04-27T00:28:55;14.60;99.90
35692;DHT22;26978;44.830;-0.674;2023-04-27T00:31:21;14.60;99.90
35692;DHT22;26978;44.830;-0.674;2023-04-27T00:33:47;14.60;99.90
35692;DHT22;26978;44.830;-0.674;2023-04-27T00:36:12;14.60;99.90
35692;DHT22;26978;44.830;-0.674;2023-04-27T00:38:38;14.60;99.90
35692;DHT22;26978;44.830;-0.674;2023-04-27T00:41:05;14.70;99.90
35692;DHT22;26978;44.830;-0.674;2023-04-27T00:43:39;14.70;99.90
35692;DHT22;26978;44.830;-0.674;2023-04-27T00:46:05;14.70;99.90
35692;DHT22;26978;44.830;-0.674;2023-04-27T00:48:31;14.70;99.90
35692;DHT22;26978;44.830;-0.674;2023-04-27T00:50:56;14.60;99.90
35692;DHT22;26978;44.830;-0.674;2023-04-27T00:53:22;14.60;99.90
35692;DHT22;26978;44.830;-0.674;2023-04-27T00:55:48;14.50;99.90
35692;DHT22;26978;44.830;-0.674;2023-04-27T00:58:14;14.50;99.90
35692;DHT22;26978;44.830;-0.674;2023-04-27T01:00:40;14.40;99.90
35692;DHT22;26978;44.830;-0.674;2023-04-27T01:03:06;14.30;99.90
35692;DHT22;26978;44.830;-0.674;2023-04-27T01:05:33;14.30;99.90
35692;DHT22;26978;44.830;-0.674;2023-04-27T01:07:59;14.30;99.90
35692;DHT22;26978;44.830;-0.674;2023-04-27T01:10:24;14.30;99.90
35692;DHT22;26978;44.830;-0.674;2023-04-27T01:12:50;14.30;99.90
35692;DHT22;26978;44.830;-0.674;2023-04-27T01:15:16;14.30;99.90
35692;DHT22;26978;44.830;-0.674;2023-04-27T01:17:41;14.30;99.90
35692;DHT22;26978;44.830;-0.674;2023-04-27T01:20:08;14.30;99.90
35692;DHT22;26978;44.830;-0.674;2023-04-27T01:22:34;14.30;99.90
35692;DHT22;26978;44.830;-0.674;2023-04-27T01:25:00;14.50;99.90
35692;DHT22;26978;44.830;-0.674;2023-04-27T01:27:25;14.50;99.90
35692;DHT22;26978;44.830;-0.674;2023-04-27T01:29:51;14.50;99.90
35692;DHT22;26978;44.830;-0.674;2023-04-27T01:32:17;14.50;99.90
35692;DHT22;26978;44.830;-0.674;2023-04-27T01:34:42;14.50;99.90
35692;DHT22;26978;44.830;-0.674;2023-04-27T01:37:08;14.50;99.90
35692;DHT22;26978;44.830;-0.674;2023-04-27T01:39:34;14.50;99.90
35692;DHT22;26978;44.830;-0.674;2023-04-27T01:42:00;14.50;99.90
35692;DHT22;26978;44.830;-0.674;2023-04-27T01:44:27;14.50;99.90
35692;DHT22;26978;44.830;-0.674;2023-04-27T01:46:53;14.60;99.90
35692;DHT22;26978;44.830;-0.674;2023-04-27T01:49:19;14.70;99.90
35692;DHT22;26978;44.830;-0.674;2023-04-27T01:51:45;14.70;99.90
35692;DHT22;26978;44.830;-0.674;2023-04-27T01:54:10;14.70;99.90
35692;DHT22;26978;44.830;-0.674;2023-04-27T01:56:36;14.70;99.90
35692;DHT22;26978;44.830;-0.674;2023-04-27T01:59:02;14.70;99.90
35692;DHT22;26978;44.830;-0.674;2023-04-27T02:01:27;14.70;99.90
35692;DHT22;26978;44.830;-0.674;2023-04-27T02:03:53;14.70;99.90
35692;DHT22;26978;44.830;-0.674;2023-04-27T02:06:18;14.70;99.90
35692;DHT22;26978;44.830;-0.674;2023-04-27T02:08:44;14.70;99.90
35692;DHT22;26978;44.830;-0.674;2023-04-27T02:11:10;14.70;99.90
35692;DHT22;26978;44.830;-0.674;2023-04-27T02:13:35;14.70;99.90
35692;DHT22;26978;44.830;-0.674;2023-04-27T02:16:01;14.70;99.90
35692;DHT22;26978;44.830;-0.674;2023-04-27T02:18:29;14.70;99.90
35692;DHT22;26978;44.830;-0.674;2023-04-27T02:20:55;14.60;99.90
35692;DHT22;26978;44.830;-0.674;2023-04-27T02:23:20;14.60;99.90
35692;DHT22;26978;44.830;-0.674;2023-04-27T02:25:46;14.60;99.90
35692;DHT22;26978;44.830;-0.674;2023-04-27T02:28:12;14.60;99.90
35692;DHT22;26978;44.830;-0.674;2023-04-27T02:30:38;14.60;99.90
35692;DHT22;26978;44.830;-0.674;2023-04-27T02:33:04;14.60;99.90
35692;DHT22;26978;44.830;-0.674;2023-04-27T02:35:30;14.60;99.90
35692;DHT22;26978;44.830;-0.674;2023-04-27T02:37:57;14.70;99.90
35692;DHT22;26978;44.830;-0.674;2023-04-27T02:40:23;14.70;99.90
35692;DHT22;26978;44.830;-0.674;2023-04-27T02:42:49;14.70;99.90
35692;DHT22;26978;44.830;-0.674;2023-04-27T02:45:15;14.70;99.90
35692;DHT22;26978;44.830;-0.674;2023-04-27T02:47:41;14.70;99.90
35692;DHT22;26978;44.830;-0.674;2023-04-27T02:50:07;14.80;99.90
35692;DHT22;26978;44.830;-0.674;2023-04-27T02:52:32;14.80;99.90
35692;DHT22;26978;44.830;-0.674;2023-04-27T02:54:58;14.80;99.90
35692;DHT22;26978;44.830;-0.674;2023-04-27T02:57:24;14.70;99.90
35692;DHT22;26978;44.830;-0.674;2023-04-27T02:59:49;14.70;99.90
35692;DHT22;26978;44.830;-0.674;2023-04-27T03:02:15;14.70;99.90
35692;DHT22;26978;44.830;-0.674;2023-04-27T03:04:41;14.70;99.90
35692;DHT22;26978;44.830;-0.674;2023-04-27T03:07:07;14.60;99.90
35692;DHT22;26978;44.830;-0.674;2023-04-27T03:09:33;14.60;99.90
35692;DHT22;26978;44.830;-0.674;2023-04-27T03:11:59;14.60;99.90
35692;DHT22;26978;44.830;-0.674;2023-04-27T03:14:24;14.60;99.90
35692;DHT22;26978;44.830;-0.674;2023-04-27T03:16:50;14.60;99.90
35692;DHT22;26978;44.830;-0.674;2023-04-27T03:19:16;14.60;99.90
35692;DHT22;26978;44.830;-0.674;2023-04-27T03:21:42;14.50;99.90
35692;DHT22;26978;44.830;-0.674;2023-04-27T03:24:07;14.60;99.90
35692;DHT22;26978;44.830;-0.674;2023-04-27T03:26:33;14.60;99.90
35692;DHT22;26978;44.830;-0.674;2023-04-27T03:28:58;14.60;99.90
35692;DHT22;26978;44.830;-0.674;2023-04-27T03:31:25;14.60;99.90
35692;DHT22;26978;44.830;-0.674;2023-04-27T03:33:51;14.60;99.90
35692;DHT22;26978;44.830;-0.674;2023-04-27T03:36:16;14.60;99.90
35692;DHT22;26978;44.830;-0.674;2023-04-27T03:38:42;14.70;99.90
35692;DHT22;26978;44.830;-0.674;2023-04-27T03:41:08;14.60;99.90
35692;DHT22;26978;44.830;-0.674;2023-04-27T03:43:33;14.60;99.90
35692;DHT22;26978;44.830;-0.674;2023-04-27T03:45:59;14.60;99.90
35692;DHT22;26978;44.830;-0.674;2023-04-27T03:48:24;14.60;99.90
35692;DHT22;26978;44.830;-0.674;2023-04-27T03:50:50;14.60;99.90
35692;DHT22;26978;44.830;-0.674;2023-04-27T03:53:16;14.70;99.90
35692;DHT22;26978;44.830;-0.674;2023-04-27T03:55:43;14.70;99.90
35692;DHT22;26978;44.830;-0.674;2023-04-27T03:58:09;14.80;99.90
35692;DHT22;26978;44.830;-0.674;2023-04-27T04:00:38;14.80;99.90
35692;DHT22;26978;44.830;-0.674;2023-04-27T04:03:04;14.80;99.90
35692;DHT22;26978;44.830;-0.674;2023-04-27T04:05:31;14.80;99.90
35692;DHT22;26978;44.830;-0.674;2023-04-27T04:07:57;14.80;99.90
35692;DHT22;26978;44.830;-0.674;2023-04-27T04:10:23;14.80;99.90
35692;DHT22;26978;44.830;-0.674;2023-04-27T04:12:50;14.90;99.90
35692;DHT22;26978;44.830;-0.674;2023-04-27T04:15:16;14.90;99.90
35692;DHT22;26978;44.830;-0.674;2023-04-27T04:17:43;14.90;99.90
35692;DHT22;26978;44.830;-0.674;2023-04-27T04:20:09;14.90;99.90
35692;DHT22;26978;44.830;-0.674;2023-04-27T04:22:36;14.90;99.90
35692;DHT22;26978;44.830;-0.674;2023-04-27T04:25:02;14.90;99.90
35692;DHT22;26978;44.830;-0.674;2023-04-27T04:27:28;14.90;99.90
35692;DHT22;26978;44.830;-0.674;2023-04-27T04:29:53;14.90;99.90
35692;DHT22;26978;44.830;-0.674;2023-04-27T04:32:20;14.80;99.90
35692;DHT22;26978;44.830;-0.674;2023-04-27T04:34:48;14.80;99.90
35692;DHT22;26978;44.830;-0.674;2023-04-27T04:37:15;14.90;99.90
35692;DHT22;26978;44.830;-0.674;2023-04-27T04:39:45;14.80;99.90
35692;DHT22;26978;44.830;-0.674;2023-04-27T04:42:11;14.80;99.90
35692;DHT22;26978;44.830;-0.674;2023-04-27T04:44:37;14.80;99.90
35692;DHT22;26978;44.830;-0.674;2023-04-27T04:47:03;15.00;99.90
35692;DHT22;26978;44.830;-0.674;2023-04-27T04:49:29;15.00;99.90
35692;DHT22;26978;44.830;-0.674;2023-04-27T04:51:55;15.00;99.90
35692;DHT22;26978;44.830;-0.674;2023-04-27T04:54:20;14.90;99.90
35692;DHT22;26978;44.830;-0.674;2023-04-27T04:56:46;15.00;99.90
35692;DHT22;26978;44.830;-0.674;2023-04-27T04:59:12;14.90;99.90
35692;DHT22;26978;44.830;-0.674;2023-04-27T05:01:37;14.90;99.90
35692;DHT22;26978;44.830;-0.674;2023-04-27T05:04:03;14.90;99.90
35692;DHT22;26978;44.830;-0.674;2023-04-27T05:06:29;15.00;99.90
35692;DHT22;26978;44.830;-0.674;2023-04-27T05:08:54;15.00;99.90
35692;DHT22;26978;44.830;-0.674;2023-04-27T05:11:20;15.00;99.90
35692;DHT22;26978;44.830;-0.674;2023-04-27T05:13:47;15.00;99.90
35692;DHT22;26978;44.830;-0.674;2023-04-27T05:16:13;15.00;99.90
35692;DHT22;26978;44.830;-0.674;2023-04-27T05:18:39;15.00;99.90
35692;DHT22;26978;44.830;-0.674;2023-04-27T05:21:04;15.00;99.90
35692;DHT22;26978;44.830;-0.674;2023-04-27T05:23:30;15.00;99.90
35692;DHT22;26978;44.830;-0.674;2023-04-27T05:25:56;15.10;99.90
35692;DHT22;26978;44.830;-0.674;2023-04-27T05:28:21;15.10;99.90
35692;DHT22;26978;44.830;-0.674;2023-04-27T05:30:47;15.10;99.90
35692;DHT22;26978;44.830;-0.674;2023-04-27T05:33:13;15.10;99.90
35692;DHT22;26978;44.830;-0.674;2023-04-27T05:35:38;15.10;99.90
35692;DHT22;26978;44.830;-0.674;2023-04-27T05:38:04;15.10;99.90
35692;DHT22;26978;44.830;-0.674;2023-04-27T05:40:30;15.10;99.90
35692;DHT22;26978;44.830;-0.674;2023-04-27T05:42:55;15.20;99.90
35692;DHT22;26978;44.830;-0.674;2023-04-27T05:45:21;15.20;99.90
35692;DHT22;26978;44.830;-0.674;2023-04-27T05:47:47;15.30;99.90
35692;DHT22;26978;44.830;-0.674;2023-04-27T05:50:12;15.40;99.90
35692;DHT22;26978;44.830;-0.674;2023-04-27T05:52:38;15.50;99.90
35692;DHT22;26978;44.830;-0.674;2023-04-27T05:55:05;15.60;99.90
35692;DHT22;26978;44.830;-0.674;2023-04-27T05:57:32;15.70;99.90
35692;DHT22;26978;44.830;-0.674;2023-04-27T05:59:58;15.70;99.90
35692;DHT22;26978;44.830;-0.674;2023-04-27T06:02:24;15.80;99.90
35692;DHT22;26978;44.830;-0.674;2023-04-27T06:04:49;15.90;99.90
35692;DHT22;26978;44.830;-0.674;2023-04-27T06:07:16;15.90;99.90
35692;DHT22;26978;44.830;-0.674;2023-04-27T06:09:41;15.90;99.90
35692;DHT22;26978;44.830;-0.674;2023-04-27T06:12:08;15.90;99.90
35692;DHT22;26978;44.830;-0.674;2023-04-27T06:14:35;15.90;99.90
35692;DHT22;26978;44.830;-0.674;2023-04-27T06:17:02;15.90;99.90
35692;DHT22;26978;44.830;-0.674;2023-04-27T06:19:28;15.90;99.90
35692;DHT22;26978;44.830;-0.674;2023-04-27T06:21:54;15.90;99.90
35692;DHT22;26978;44.830;-0.674;2023-04-27T06:24:20;16.00;99.90
35692;DHT22;26978;44.830;-0.674;2023-04-27T06:26:48;16.00;99.90
35692;DHT22;26978;44.830;-0.674;2023-04-27T06:29:13;16.10;99.90
35692;DHT22;26978;44.830;-0.674;2023-04-27T06:31:39;16.30;99.90
35692;DHT22;26978;44.830;-0.674;2023-04-27T06:34:05;16.50;99.90
35692;DHT22;26978;44.830;-0.674;2023-04-27T06:36:31;16.60;99.90
35692;DHT22;26978;44.830;-0.674;2023-04-27T06:38:57;16.60;99.90
35692;DHT22;26978;44.830;-0.674;2023-04-27T06:41:23;16.70;99.90
35692;DHT22;26978;44.830;-0.674;2023-04-27T06:43:50;16.50;99.90
35692;DHT22;26978;44.830;-0.674;2023-04-27T06:46:16;16.50;99.90
35692;DHT22;26978;44.830;-0.674;2023-04-27T06:48:41;16.60;99.90
35692;DHT22;26978;44.830;-0.674;2023-04-27T06:51:07;16.70;99.90
35692;DHT22;26978;44.830;-0.674;2023-04-27T06:53:33;16.80;99.90
35692;DHT22;26978;44.830;-0.674;2023-04-27T06:55:58;16.80;99.90
35692;DHT22;26978;44.830;-0.674;2023-04-27T06:58:24;17.10;99.90
35692;DHT22;26978;44.830;-0.674;2023-04-27T07:00:51;17.00;99.90
35692;DHT22;26978;44.830;-0.674;2023-04-27T07:03:17;17.10;99.90
35692;DHT22;26978;44.830;-0.674;2023-04-27T07:05:43;17.20;99.90
35692;DHT22;26978;44.830;-0.674;2023-04-27T07:08:08;17.30;99.90
35692;DHT22;26978;44.830;-0.674;2023-04-27T07:10:34;17.40;99.90
35692;DHT22;26978;44.830;-0.674;2023-04-27T07:13:00;17.60;99.90
35692;DHT22;26978;44.830;-0.674;2023-04-27T07:15:26;17.60;99.90
35692;DHT22;26978;44.830;-0.674;2023-04-27T07:17:52;17.60;99.90
35692;DHT22;26978;44.830;-0.674;2023-04-27T07:20:20;17.70;99.90
35692;DHT22;26978;44.830;-0.674;2023-04-27T07:22:46;17.60;99.90
35692;DHT22;26978;44.830;-0.674;2023-04-27T07:25:12;17.60;99.90
35692;DHT22;26978;44.830;-0.674;2023-04-27T07:27:38;17.80;99.90
35692;DHT22;26978;44.830;-0.674;2023-04-27T07:30:04;17.90;99.90
35692;DHT22;26978;44.830;-0.674;2023-04-27T07:32:34;17.90;99.90
35692;DHT22;26978;44.830;-0.674;2023-04-27T07:35:00;17.90;99.90
35692;DHT22;26978;44.830;-0.674;2023-04-27T07:37:25;17.70;99.90
35692;DHT22;26978;44.830;-0.674;2023-04-27T07:39:51;17.50;99.90
35692;DHT22;26978;44.830;-0.674;2023-04-27T07:42:18;17.70;99.90
35692;DHT22;26978;44.830;-0.674;2023-04-27T07:44:44;17.90;99.90
35692;DHT22;26978;44.830;-0.674;2023-04-27T07:47:09;18.30;99.90
35692;DHT22;26978;44.830;-0.674;2023-04-27T07:49:36;18.50;99.90
35692;DHT22;26978;44.830;-0.674;2023-04-27T07:52:02;18.70;99.90
35692;DHT22;26978;44.830;-0.674;2023-04-27T07:54:29;18.90;99.90
35692;DHT22;26978;44.830;-0.674;2023-04-27T07:56:54;18.50;99.90
35692;DHT22;26978;44.830;-0.674;2023-04-27T07:59:20;18.60;99.90
35692;DHT22;26978;44.830;-0.674;2023-04-27T08:01:46;18.40;99.90
35692;DHT22;26978;44.830;-0.674;2023-04-27T08:04:12;18.60;99.90
35692;DHT22;26978;44.830;-0.674;2023-04-27T08:06:38;18.30;99.90
35692;DHT22;26978;44.830;-0.674;2023-04-27T08:09:04;18.60;99.90
35692;DHT22;26978;44.830;-0.674;2023-04-27T08:11:30;18.70;99.90
35692;DHT22;26978;44.830;-0.674;2023-04-27T08:13:56;18.70;99.90
35692;DHT22;26978;44.830;-0.674;2023-04-27T08:16:21;18.70;99.90
35692;DHT22;26978;44.830;-0.674;2023-04-27T08:18:48;19.10;99.90
35692;DHT22;26978;44.830;-0.674;2023-04-27T08:21:14;18.90;99.90
35692;DHT22;26978;44.830;-0.674;2023-04-27T08:23:41;19.00;99.90
35692;DHT22;26978;44.830;-0.674;2023-04-27T08:26:07;19.10;99.90
35692;DHT22;26978;44.830;-0.674;2023-04-27T08:28:33;19.10;99.90
35692;DHT22;26978;44.830;-0.674;2023-04-27T08:30:58;18.80;99.90
35692;DHT22;26978;44.830;-0.674;2023-04-27T08:33:24;18.80;99.90
35692;DHT22;26978;44.830;-0.674;2023-04-27T08:35:52;18.90;99.90
35692;DHT22;26978;44.830;-0.674;2023-04-27T08:38:17;19.10;99.90
35692;DHT22;26978;44.830;-0.674;2023-04-27T08:40:44;19.50;99.90
35692;DHT22;26978;44.830;-0.674;2023-04-27T08:43:10;19.30;99.90
35692;DHT22;26978;44.830;-0.674;2023-04-27T08:45:36;19.40;99.90
35692;DHT22;26978;44.830;-0.674;2023-04-27T08:48:02;18.90;99.90
35692;DHT22;26978;44.830;-0.674;2023-04-27T08:50:27;18.70;99.90
35692;DHT22;26978;44.830;-0.674;2023-04-27T08:52:54;18.70;99.90
35692;DHT22;26978;44.830;-0.674;2023-04-27T08:55:19;18.90;99.90
35692;DHT22;26978;44.830;-0.674;2023-04-27T08:57:58;19.10;99.90
35692;DHT22;26978;44.830;-0.674;2023-04-27T09:00:26;19.10;99.90
35692;DHT22;26978;44.830;-0.674;2023-04-27T09:02:52;18.90;99.90
35692;DHT22;26978;44.830;-0.674;2023-04-27T09:05:19;19.10;99.90
35692;DHT22;26978;44.830;-0.674;2023-04-27T09:10:21;19.40;99.90
35692;DHT22;26978;44.830;-0.674;2023-04-27T09:12:57;19.50;99.90
35692;DHT22;26978;44.830;-0.674;2023-04-27T09:15:23;19.30;99.90
35692;DHT22;26978;44.830;-0.674;2023-04-27T09:17:53;19.40;99.90
35692;DHT22;26978;44.830;-0.674;2023-04-27T09:20:19;19.20;99.90
35692;DHT22;26978;44.830;-0.674;2023-04-27T09:22:46;19.60;99.90
35692;DHT22;26978;44.830;-0.674;2023-04-27T09:25:28;19.90;99.90
35692;DHT22;26978;44.830;-0.674;2023-04-27T09:27:55;19.90;99.90
35692;DHT22;26978;44.830;-0.674;2023-04-27T09:30:22;19.30;99.90
35692;DHT22;26978;44.830;-0.674;2023-04-27T09:35:23;20.20;99.90
35692;DHT22;26978;44.830;-0.674;2023-04-27T09:37:50;20.20;99.90
35692;DHT22;26978;44.830;-0.674;2023-04-27T09:40:28;19.80;99.90
35692;DHT22;26978;44.830;-0.674;2023-04-27T09:42:56;19.90;99.90
35692;DHT22;26978;44.830;-0.674;2023-04-27T09:45:23;19.90;99.90
35692;DHT22;26978;44.830;-0.674;2023-04-27T09:47:49;19.70;99.90
35692;DHT22;26978;44.830;-0.674;2023-04-27T09:50:15;19.80;99.90
35692;DHT22;26978;44.830;-0.674;2023-04-27T09:52:41;20.30;99.90
35692;DHT22;26978;44.830;-0.674;2023-04-27T09:55:14;20.50;99.90
35692;DHT22;26978;44.830;-0.674;2023-04-27T10:03:32;21.30;99.90
35692;DHT22;26978;44.830;-0.674;2023-04-27T10:08:39;21.30;99.90
35692;DHT22;26978;44.830;-0.674;2023-04-27T10:11:16;21.40;99.90
35692;DHT22;26978;44.830;-0.674;2023-04-27T10:13:50;21.60;99.90
35692;DHT22;26978;44.830;-0.674;2023-04-27T10:16:20;21.50;99.90
35692;DHT22;26978;44.830;-0.674;2023-04-27T10:18:55;21.90;99.90
35692;DHT22;26978;44.830;-0.674;2023-04-27T10:21:21;21.70;99.90
35692;DHT22;26978;44.830;-0.674;2023-04-27T10:24:24;22.00;99.90
35692;DHT22;26978;44.830;-0.674;2023-04-27T10:30:45;23.00;99.90
35692;DHT22;26978;44.830;-0.674;2023-04-27T10:33:15;22.90;99.90
35692;DHT22;26978;44.830;-0.674;2023-04-27T10:35:56;22.60;99.90
35692;DHT22;26978;44.830;-0.674;2023-04-27T10:38:27;22.60;99.90
35692;DHT22;26978;44.830;-0.674;2023-04-27T10:40:56;22.60;99.90
35692;DHT22;26978;44.830;-0.674;2023-04-27T10:43:27;22.70;99.90
35692;DHT22;26978;44.830;-0.674;2023-04-27T10:45:53;22.30;99.90
35692;DHT22;26978;44.830;-0.674;2023-04-27T10:48:20;22.30;99.90
35692;DHT22;26978;44.830;-0.674;2023-04-27T10:50:46;22.00;99.90
35692;DHT22;26978;44.830;-0.674;2023-04-27T10:53:15;21.90;99.90
35692;DHT22;26978;44.830;-0.674;2023-04-27T10:55:41;22.10;99.90
35692;DHT22;26978;44.830;-0.674;2023-04-27T10:58:07;22.40;99.90
35692;DHT22;26978;44.830;-0.674;2023-04-27T11:00:35;22.20;99.90
35692;DHT22;26978;44.830;-0.674;2023-04-27T11:03:16;22.20;99.90
35692;DHT22;26978;44.830;-0.674;2023-04-27T11:05:44;22.60;99.90
35692;DHT22;26978;44.830;-0.674;2023-04-27T11:08:12;22.90;99.90
35692;DHT22;26978;44.830;-0.674;2023-04-27T11:10:39;22.90;99.90
35692;DHT22;26978;44.830;-0.674;2023-04-27T11:13:07;22.30;99.90
35692;DHT22;26978;44.830;-0.674;2023-04-27T11:18:17;22.50;99.90
35692;DHT22;26978;44.830;-0.674;2023-04-27T11:20:45;22.60;99.90
35692;DHT22;26978;44.830;-0.674;2023-04-27T11:23:25;22.40;99.90
35692;DHT22;26978;44.830;-0.674;2023-04-27T11:25:52;22.60;99.90
35692;DHT22;26978;44.830;-0.674;2023-04-27T11:28:19;22.40;99.90
35692;DHT22;26978;44.830;-0.674;2023-04-27T11:30:44;22.80;99.90
35692;DHT22;26978;44.830;-0.674;2023-04-27T11:33:10;23.00;99.90
35692;DHT22;26978;44.830;-0.674;2023-04-27T11:35:36;23.10;99.90
35692;DHT22;26978;44.830;-0.674;2023-04-27T11:38:03;23.00;99.90
35692;DHT22;26978;44.830;-0.674;2023-04-27T11:40:29;22.80;99.90
35692;DHT22;26978;44.830;-0.674;2023-04-27T11:42:58;23.20;99.90
35692;DHT22;26978;44.830;-0.674;2023-04-27T11:45:27;23.50;99.90
35692;DHT22;26978;44.830;-0.674;2023-04-27T11:47:53;23.80;99.90
35692;DHT22;26978;44.830;-0.674;2023-04-27T11:50:19;23.80;99.90
35692;DHT22;26978;44.830;-0.674;2023-04-27T11:52:48;23.90;99.90
35692;DHT22;26978;44.830;-0.674;2023-04-27T11:55:13;23.70;99.90
35692;DHT22;26978;44.830;-0.674;2023-04-27T11:57:42;23.80;99.90
35692;DHT22;26978;44.830;-0.674;2023-04-27T12:00:08;23.70;99.90
35692;DHT22;26978;44.830;-0.674;2023-04-27T12:02:35;23.90;99.90
35692;DHT22;26978;44.830;-0.674;2023-04-27T12:05:02;24.10;99.90
35692;DHT22;26978;44.830;-0.674;2023-04-27T12:07:28;24.10;99.90
35692;DHT22;26978;44.830;-0.674;2023-04-27T12:09:53;23.80;99.90
35692;DHT22;26978;44.830;-0.674;2023-04-27T12:12:19;23.40;99.90
35692;DHT22;26978;44.830;-0.674;2023-04-27T12:14:48;23.50;99.90
35692;DHT22;26978;44.830;-0.674;2023-04-27T12:17:13;23.90;99.90
35692;DHT22;26978;44.830;-0.674;2023-04-27T12:19:39;23.70;99.90
35692;DHT22;26978;44.830;-0.674;2023-04-27T12:22:05;24.10;99.90
35692;DHT22;26978;44.830;-0.674;2023-04-27T12:24:31;24.60;99.90
35692;DHT22;26978;44.830;-0.674;2023-04-27T12:26:57;25.10;99.90
35692;DHT22;26978;44.830;-0.674;2023-04-27T12:29:24;25.30;99.90
35692;DHT22;26978;44.830;-0.674;2023-04-27T12:31:50;25.20;99.90
35692;DHT22;26978;44.830;-0.674;2023-04-27T12:34:16;24.90;99.90
35692;DHT22;26978;44.830;-0.674;2023-04-27T12:36:42;25.00;99.90
35692;DHT22;26978;44.830;-0.674;2023-04-27T12:39:16;24.70;99.90
35692;DHT22;26978;44.830;-0.674;2023-04-27T12:41:43;24.80;99.90
35692;DHT22;26978;44.830;-0.674;2023-04-27T12:44:09;24.20;99.90
35692;DHT22;26978;44.830;-0.674;2023-04-27T12:46:35;24.40;99.90
35692;DHT22;26978;44.830;-0.674;2023-04-27T12:49:01;24.80;99.90
35692;DHT22;26978;44.830;-0.674;2023-04-27T12:51:27;25.30;99.90
35692;DHT22;26978;44.830;-0.674;2023-04-27T12:53:53;25.50;99.90
35692;DHT22;26978;44.830;-0.674;2023-04-27T12:56:19;25.60;99.90
35692;DHT22;26978;44.830;-0.674;2023-04-27T12:58:46;25.60;99.90
35692;DHT22;26978;44.830;-0.674;2023-04-27T13:01:11;25.70;99.90
35692;DHT22;26978;44.830;-0.674;2023-04-27T13:03:41;25.90;99.90
35692;DHT22;26978;44.830;-0.674;2023-04-27T13:06:07;26.10;99.90
35692;DHT22;26978;44.830;-0.674;2023-04-27T13:08:34;25.60;99.90
35692;DHT22;26978;44.830;-0.674;2023-04-27T13:11:00;25.30;99.90
35692;DHT22;26978;44.830;-0.674;2023-04-27T13:13:26;25.20;99.90
35692;DHT22;26978;44.830;-0.674;2023-04-27T13:15:51;24.80;99.90
35692;DHT22;26978;44.830;-0.674;2023-04-27T13:18:17;24.70;99.90
35692;DHT22;26978;44.830;-0.674;2023-04-27T13:20:43;24.70;99.90
35692;DHT22;26978;44.830;-0.674;2023-04-27T13:23:09;24.80;99.90
35692;DHT22;26978;44.830;-0.674;2023-04-27T13:25:35;25.10;99.90
35692;DHT22;26978;44.830;-0.674;2023-04-27T13:28:01;25.40;99.90
35692;DHT22;26978;44.830;-0.674;2023-04-27T13:30:27;25.80;99.90
35692;DHT22;26978;44.830;-0.674;2023-04-27T13:32:52;26.10;99.90
35692;DHT22;26978;44.830;-0.674;2023-04-27T13:35:18;26.10;99.90
35692;DHT22;26978;44.830;-0.674;2023-04-27T13:37:44;26.10;99.90
35692;DHT22;26978;44.830;-0.674;2023-04-27T13:40:10;26.20;99.90
35692;DHT22;26978;44.830;-0.674;2023-04-27T13:42:38;26.10;99.90
35692;DHT22;26978;44.830;-0.674;2023-04-27T13:45:04;26.00;99.90
35692;DHT22;26978;44.830;-0.674;2023-04-27T13:47:30;26.00;99.90
35692;DHT22;26978;44.830;-0.674;2023-04-27T13:50:06;25.70;99.90
35692;DHT22;26978;44.830;-0.674;2023-04-27T13:52:33;24.80;99.90
35692;DHT22;26978;44.830;-0.674;2023-04-27T13:54:58;25.50;99.90
35692;DHT22;26978;44.830;-0.674;2023-04-27T13:57:24;25.60;99.90
35692;DHT22;26978;44.830;-0.674;2023-04-27T13:59:50;25.00;99.90
35692;DHT22;26978;44.830;-0.674;2023-04-27T14:02:16;25.20;99.90
35692;DHT22;26978;44.830;-0.674;2023-04-27T14:04:41;26.40;99.90
35692;DHT22;26978;44.830;-0.674;2023-04-27T14:07:07;27.00;99.90
35692;DHT22;26978;44.830;-0.674;2023-04-27T14:09:32;27.70;99.90
35692;DHT22;26978;44.830;-0.674;2023-04-27T14:11:58;28.10;99.90
35692;DHT22;26978;44.830;-0.674;2023-04-27T14:14:24;29.10;99.60
35692;DHT22;26978;44.830;-0.674;2023-04-27T14:16:51;29.30;99.70
35692;DHT22;26978;44.830;-0.674;2023-04-27T14:19:17;29.60;98.50
35692;DHT22;26978;44.830;-0.674;2023-04-27T14:21:48;28.90;96.80
35692;DHT22;26978;44.830;-0.674;2023-04-27T14:24:13;29.80;98.10
35692;DHT22;26978;44.830;-0.674;2023-04-27T14:26:39;28.90;95.10
35692;DHT22;26978;44.830;-0.674;2023-04-27T14:29:11;27.30;97.50
35692;DHT22;26978;44.830;-0.674;2023-04-27T14:31:37;26.40;99.90
35692;DHT22;26978;44.830;-0.674;2023-04-27T14:34:03;26.50;99.90
35692;DHT22;26978;44.830;-0.674;2023-04-27T14:36:29;26.20;99.90
35692;DHT22;26978;44.830;-0.674;2023-04-27T14:38:56;25.90;99.90
35692;DHT22;26978;44.830;-0.674;2023-04-27T14:41:22;25.40;99.90
35692;DHT22;26978;44.830;-0.674;2023-04-27T14:43:47;25.30;99.90
35692;DHT22;26978;44.830;-0.674;2023-04-27T14:46:15;25.40;99.90
35692;DHT22;26978;44.830;-0.674;2023-04-27T14:48:41;25.30;99.90
35692;DHT22;26978;44.830;-0.674;2023-04-27T14:51:06;25.40;99.90
35692;DHT22;26978;44.830;-0.674;2023-04-27T14:53:32;25.50;99.90
35692;DHT22;26978;44.830;-0.674;2023-04-27T14:55:58;26.10;99.90
35692;DHT22;26978;44.830;-0.674;2023-04-27T14:58:23;27.80;99.90
35692;DHT22;26978;44.830;-0.674;2023-04-27T15:00:50;29.00;95.10
35692;DHT22;26978;44.830;-0.674;2023-04-27T15:03:16;29.10;95.60
35692;DHT22;26978;44.830;-0.674;2023-04-27T15:05:42;28.50;94.50
35692;DHT22;26978;44.830;-0.674;2023-04-27T15:08:08;27.30;98.10
35692;DHT22;26978;44.830;-0.674;2023-04-27T15:10:34;28.20;98.30
35692;DHT22;26978;44.830;-0.674;2023-04-27T15:13:01;28.30;99.90
35692;DHT22;26978;44.830;-0.674;2023-04-27T15:15:27;29.00;97.00
35692;DHT22;26978;44.830;-0.674;2023-04-27T15:17:52;28.60;93.90
35692;DHT22;26978;44.830;-0.674;2023-04-27T15:20:18;28.60;98.30
35692;DHT22;26978;44.830;-0.674;2023-04-27T15:22:44;29.90;96.00
35692;DHT22;26978;44.830;-0.674;2023-04-27T15:25:10;30.90;92.70
35692;DHT22;26978;44.830;-0.674;2023-04-27T15:27:36;31.00;86.00
35692;DHT22;26978;44.830;-0.674;2023-04-27T15:30:02;31.50;84.10
35692;DHT22;26978;44.830;-0.674;2023-04-27T15:32:29;30.70;89.00